Thunder radar more information blitzortung!


Radar de pluja more information rain snow radar


Visita la nostra xarxa de llocs de meteo:

Template documentation
and downloads

And another site



No particular awareness of the weather is required.    There are no Weather-warnings

Pagina Historial Weather Underground text

Diari Resum January 25, 2016 Unitats:  Mètric    Imperial   Tant
« Previous Dia
SegĂźent Dia »
Diari Setmana Mensual Anual Personalitzada
  Maxima: Minima: Media:
Temperatura: 16.0 °C 9.9 °C 12.8 °C
Punt de rosada: 10.4 °C 6.9 °C 8.8 °C
Humitat: 86 % 68 % 77 %
Wind Speed: 14.8 km/h 0.0 km/h 5.3 km/h
RĂ fegues de vent: 14.8 km/h - -
Vent:- - WSW
Pression baro: 1033.7 hPa 1030.7 hPa -
Precipitacions: 0.0 mm    
Historical Graphs
 
 
Dades de taula per January 25, 2016
Temps Temperatura Punt de rosada Pression baro Vent Wind Speed RĂ fegues de vent Humitat Rainfall Rate (Hourly)
11:03 11.6 °C 9.2 °C 1033.7 hPa Calm     85 % 0.0 mm
11:08 11.7 °C 9.3 °C 1033.7 hPa NE 2.3 km/h 2.3 km/h 85 % 0.0 mm
11:18 11.8 °C 9.3 °C 1033.7 hPa Calm     85 % 0.0 mm
11:23 12.0 °C 9.6 °C 1033.7 hPa West 2.3 km/h 2.3 km/h 85 % 0.0 mm
11:28 12.1 °C 9.8 °C 1033.7 hPa Calm     86 % 0.0 mm
11:33 12.2 °C 9.9 °C 1033.7 hPa SSW 1.9 km/h 1.9 km/h 86 % 0.0 mm
11:38 12.3 °C 10.0 °C 1032.7 hPa WSW 3.7 km/h 3.7 km/h 86 % 0.0 mm
11:43 12.4 °C 10.1 °C 1032.7 hPa SW 1.9 km/h 2.3 km/h 86 % 0.0 mm
11:48 12.6 °C 10.3 °C 1032.7 hPa SSW 3.9 km/h 3.9 km/h 86 % 0.0 mm
11:58 12.8 °C 10.2 °C 1033.7 hPa WSW 7.4 km/h 7.4 km/h 84 % 0.0 mm
12:03 12.8 °C 10.0 °C 1033.7 hPa WSW 11.1 km/h 11.1 km/h 83 % 0.0 mm
12:08 12.9 °C 9.7 °C 1033.7 hPa WSW 9.3 km/h 9.3 km/h 81 % 0.0 mm
12:13 13.0 °C 9.8 °C 1033.7 hPa WSW 7.4 km/h 7.4 km/h 81 % 0.0 mm
12:18 13.1 °C 9.7 °C 1033.7 hPa SSW 13.0 km/h 13.0 km/h 80 % 0.0 mm
12:23 13.1 °C 9.6 °C 1032.7 hPa SW 7.4 km/h 7.9 km/h 79 % 0.0 mm
12:28 13.1 °C 9.6 °C 1032.7 hPa WSW 9.3 km/h 9.3 km/h 79 % 0.0 mm
12:38 13.2 °C 9.6 °C 1032.7 hPa South 6.9 km/h 6.9 km/h 79 % 0.0 mm
12:43 13.3 °C 9.7 °C 1032.7 hPa WSW 9.3 km/h 9.3 km/h 79 % 0.0 mm
12:48 13.3 °C 9.7 °C 1032.7 hPa West 7.4 km/h 7.4 km/h 79 % 0.0 mm
12:53 13.4 °C 9.8 °C 1032.7 hPa SW 7.4 km/h 7.4 km/h 79 % 0.0 mm
12:58 13.5 °C 9.9 °C 1032.7 hPa WSW 5.6 km/h 5.6 km/h 79 % 0.0 mm
13:03 13.6 °C 10.0 °C 1032.7 hPa WSW 4.7 km/h 5.0 km/h 79 % 0.0 mm
13:08 13.6 °C 9.8 °C 1032.1 hPa WSW 7.4 km/h 7.4 km/h 78 % 0.0 mm
13:13 13.6 °C 9.8 °C 1032.1 hPa WNW 6.1 km/h 6.1 km/h 78 % 0.0 mm
13:18 13.7 °C 9.9 °C 1032.1 hPa SW 7.4 km/h 7.4 km/h 78 % 0.0 mm
13:28 13.7 °C 9.9 °C 1032.1 hPa SW 9.3 km/h 9.3 km/h 78 % 0.0 mm
13:43 13.9 °C 9.9 °C 1032.1 hPa WSW 3.9 km/h 3.9 km/h 77 % 0.0 mm
13:48 13.9 °C 9.9 °C 1032.1 hPa WSW 7.4 km/h 7.4 km/h 77 % 0.0 mm
13:53 14.0 °C 10.1 °C 1030.7 hPa WSW 5.6 km/h 5.6 km/h 77 % 0.0 mm
13:58 14.0 °C 10.1 °C 1030.7 hPa WSW 5.6 km/h 5.6 km/h 77 % 0.0 mm
14:03 14.0 °C 10.1 °C 1030.7 hPa SW 5.6 km/h 5.6 km/h 77 % 0.0 mm
14:08 14.0 °C 10.1 °C 1032.1 hPa SW 8.7 km/h 8.7 km/h 77 % 0.0 mm
14:13 14.0 °C 10.1 °C 1032.1 hPa SW 3.7 km/h 4.2 km/h 77 % 0.0 mm
14:18 14.0 °C 9.8 °C 1032.1 hPa West 9.3 km/h 9.3 km/h 76 % 0.0 mm
14:23 14.1 °C 9.9 °C 1032.1 hPa SW 9.3 km/h 9.3 km/h 76 % 0.0 mm
14:28 14.2 °C 10.0 °C 1032.1 hPa West 7.4 km/h 7.4 km/h 76 % 0.0 mm
14:33 14.3 °C 10.1 °C 1032.1 hPa WSW 9.3 km/h 9.3 km/h 76 % 0.0 mm
14:38 14.3 °C 9.9 °C 1032.1 hPa WSW 9.3 km/h 9.3 km/h 75 % 0.0 mm
14:43 14.4 °C 10.0 °C 1032.1 hPa SW 7.4 km/h 7.4 km/h 75 % 0.0 mm
14:48 14.5 °C 10.1 °C 1032.1 hPa SW 6.1 km/h 6.1 km/h 75 % 0.0 mm
14:53 14.5 °C 10.1 °C 1032.1 hPa WSW 9.3 km/h 9.3 km/h 75 % 0.0 mm
14:58 14.6 °C 10.0 °C 1032.1 hPa SW 6.9 km/h 6.9 km/h 74 % 0.0 mm
15:03 14.6 °C 10.0 °C 1032.1 hPa SW 9.3 km/h 9.3 km/h 74 % 0.0 mm
15:08 14.6 °C 10.0 °C 1032.1 hPa SW 11.1 km/h 11.1 km/h 74 % 0.0 mm
15:13 14.7 °C 10.1 °C 1032.1 hPa SW 5.6 km/h 5.6 km/h 74 % 0.0 mm
15:18 14.8 °C 10.2 °C 1032.1 hPa WSW 9.3 km/h 9.3 km/h 74 % 0.0 mm
15:23 15.0 °C 10.2 °C 1032.1 hPa West 5.6 km/h 5.6 km/h 73 % 0.0 mm
15:28 15.1 °C 10.3 °C 1032.1 hPa SW 7.4 km/h 7.4 km/h 73 % 0.0 mm
15:33 15.1 °C 10.1 °C 1032.1 hPa SW 13.0 km/h 13.0 km/h 72 % 0.0 mm
15:38 15.2 °C 10.2 °C 1032.1 hPa WSW 9.3 km/h 9.3 km/h 72 % 0.0 mm
15:48 15.3 °C 9.8 °C 1032.1 hPa SW 13.0 km/h 13.0 km/h 70 % 0.0 mm
15:53 15.5 °C 10.3 °C 1032.1 hPa SW 7.4 km/h 7.4 km/h 71 % 0.0 mm
15:58 15.9 °C 10.4 °C 1032.1 hPa SW 13.0 km/h 13.0 km/h 70 % 0.0 mm
16:03 16.0 °C 10.3 °C 1032.1 hPa WSW 9.7 km/h 9.7 km/h 69 % 0.0 mm
16:08 15.8 °C 9.9 °C 1032.1 hPa SW 14.8 km/h 14.8 km/h 68 % 0.0 mm
16:13 15.7 °C 9.8 °C 1032.1 hPa SW 14.8 km/h 14.8 km/h 68 % 0.0 mm
16:18 15.7 °C 9.8 °C 1032.1 hPa SW 9.3 km/h 9.3 km/h 68 % 0.0 mm
16:23 15.7 °C 9.8 °C 1030.7 hPa WSW 9.3 km/h 9.3 km/h 68 % 0.0 mm
16:28 15.7 °C 9.8 °C 1030.7 hPa WSW 9.3 km/h 9.3 km/h 68 % 0.0 mm
16:33 15.6 °C 9.7 °C 1030.7 hPa SSW 9.3 km/h 9.3 km/h 68 % 0.0 mm
16:38 15.5 °C 9.6 °C 1030.7 hPa WSW 14.8 km/h 14.8 km/h 68 % 0.0 mm
16:43 15.4 °C 9.5 °C 1030.7 hPa SW 11.1 km/h 11.1 km/h 68 % 0.0 mm
16:48 15.3 °C 9.7 °C 1030.7 hPa SW 9.3 km/h 9.3 km/h 69 % 0.0 mm
16:53 15.5 °C 9.8 °C 1032.1 hPa SW 7.4 km/h 7.4 km/h 69 % 0.0 mm
16:58 15.2 °C 9.6 °C 1032.1 hPa SW 11.1 km/h 11.1 km/h 69 % 0.0 mm
17:03 15.2 °C 9.6 °C 1032.1 hPa SSW 11.1 km/h 11.1 km/h 69 % 0.0 mm
17:08 15.0 °C 9.6 °C 1032.1 hPa SW 9.3 km/h 9.3 km/h 70 % 0.0 mm
17:13 15.0 °C 9.6 °C 1032.1 hPa WSW 9.3 km/h 9.3 km/h 70 % 0.0 mm
17:18 14.9 °C 9.5 °C 1032.1 hPa SSW 9.3 km/h 9.3 km/h 70 % 0.0 mm
17:23 14.7 °C 9.3 °C 1032.1 hPa WSW 11.1 km/h 11.1 km/h 70 % 0.0 mm
17:28 14.7 °C 9.5 °C 1032.1 hPa SW 5.6 km/h 5.8 km/h 71 % 0.0 mm
17:33 14.5 °C 9.3 °C 1032.1 hPa WSW 9.3 km/h 9.3 km/h 71 % 0.0 mm
17:38 14.3 °C 9.1 °C 1032.1 hPa SW 7.4 km/h 7.4 km/h 71 % 0.0 mm
17:43 14.1 °C 9.1 °C 1032.1 hPa SSW 13.0 km/h 13.0 km/h 72 % 0.0 mm
17:48 13.9 °C 8.9 °C 1032.1 hPa SSW 5.6 km/h 5.6 km/h 72 % 0.0 mm
17:53 13.8 °C 8.8 °C 1032.1 hPa WSW 7.4 km/h 7.4 km/h 72 % 0.0 mm
17:58 13.7 °C 8.9 °C 1032.1 hPa SW 5.6 km/h 5.6 km/h 73 % 0.0 mm
18:03 13.6 °C 8.8 °C 1032.1 hPa SW 5.6 km/h 5.6 km/h 73 % 0.0 mm
18:08 13.4 °C 8.7 °C 1030.7 hPa SW 5.6 km/h 5.6 km/h 73 % 0.0 mm
18:09 13.4 °C 8.7 °C 1030.7 hPa WSW 5.6 km/h 5.6 km/h 73 % 0.0 mm
18:10 13.4 °C 8.7 °C 1030.7 hPa SW 5.6 km/h 5.6 km/h 73 % 0.0 mm
18:11 13.3 °C 8.6 °C 1030.7 hPa WSW 3.7 km/h 3.9 km/h 73 % 0.0 mm
18:12 13.3 °C 8.6 °C 1030.7 hPa WSW 4.2 km/h 4.2 km/h 73 % 0.0 mm
18:22 13.1 °C 8.6 °C 1032.1 hPa WSW 5.6 km/h 5.6 km/h 74 % 0.0 mm
18:27 13.0 °C 8.4 °C 1032.1 hPa SW 7.4 km/h 7.4 km/h 74 % 0.0 mm
18:32 12.9 °C 8.4 °C 1032.1 hPa WSW 5.6 km/h 5.6 km/h 74 % 0.0 mm
18:42 12.7 °C 8.4 °C 1032.1 hPa West 5.6 km/h 5.6 km/h 75 % 0.0 mm
18:47 12.6 °C 8.3 °C 1032.1 hPa SW 7.4 km/h 7.4 km/h 75 % 0.0 mm
18:52 12.5 °C 8.2 °C 1032.1 hPa WSW 7.4 km/h 7.4 km/h 75 % 0.0 mm
18:57 12.4 °C 8.1 °C 1032.1 hPa SW 5.6 km/h 5.6 km/h 75 % 0.0 mm
19:02 12.2 °C 7.9 °C 1032.1 hPa SW 3.7 km/h 3.7 km/h 75 % 0.0 mm
19:07 12.2 °C 8.1 °C 1030.7 hPa WNW 5.3 km/h 5.3 km/h 76 % 0.0 mm
19:12 12.2 °C 8.1 °C 1030.7 hPa SSW 7.9 km/h 7.9 km/h 76 % 0.0 mm
19:17 12.1 °C 8.0 °C 1030.7 hPa WSW 5.6 km/h 5.6 km/h 76 % 0.0 mm
19:22 12.0 °C 7.9 °C 1032.1 hPa WSW 7.4 km/h   76 % 0.0 mm
19:27 12.0 °C 7.9 °C 1032.1 hPa West 5.6 km/h 5.6 km/h 76 % 0.0 mm
19:32 11.9 °C 8.0 °C 1032.1 hPa Calm     77 % 0.0 mm
19:37 11.8 °C 7.9 °C 1032.1 hPa NNW 3.7 km/h   77 % 0.0 mm
19:42 11.8 °C 7.9 °C 1032.1 hPa West 1.4 km/h   77 % 0.0 mm
19:47 11.7 °C 7.8 °C 1032.1 hPa WNW 1.9 km/h 1.9 km/h 77 % 0.0 mm
19:52 11.6 °C 7.9 °C 1032.7 hPa North 1.9 km/h 1.9 km/h 78 % 0.0 mm
19:57 11.6 °C 7.9 °C 1032.7 hPa NNW 1.9 km/h   78 % 0.0 mm
20:02 11.5 °C 7.8 °C 1032.7 hPa Calm     78 % 0.0 mm
20:07 11.4 °C 7.7 °C 1032.7 hPa WSW 3.2 km/h 3.2 km/h 78 % 0.0 mm
20:12 11.3 °C 7.6 °C 1032.7 hPa WSW 1.9 km/h   78 % 0.0 mm
20:17 11.3 °C 7.6 °C 1032.7 hPa WSW 1.9 km/h   78 % 0.0 mm
20:22 11.3 °C 7.6 °C 1032.7 hPa WSW 3.7 km/h 3.7 km/h 78 % 0.0 mm
20:27 11.3 °C 7.6 °C 1032.7 hPa WSW 3.7 km/h 3.7 km/h 78 % 0.0 mm
20:37 11.2 °C 7.7 °C 1032.7 hPa WSW 3.7 km/h 3.7 km/h 79 % 0.0 mm
20:42 11.1 °C 7.6 °C 1032.7 hPa WSW 1.9 km/h 1.9 km/h 79 % 0.0 mm
20:52 11.0 °C 7.5 °C 1032.7 hPa Calm     79 % 0.0 mm
20:57 10.9 °C 7.4 °C 1032.7 hPa Calm     79 % 0.0 mm
21:02 10.8 °C 7.5 °C 1032.7 hPa Calm     80 % 0.0 mm
21:07 10.7 °C 7.4 °C 1033.7 hPa Calm     80 % 0.0 mm
21:12 10.7 °C 7.4 °C 1033.7 hPa WNW 1.9 km/h   80 % 0.0 mm
21:17 10.6 °C 7.3 °C 1033.7 hPa Calm     80 % 0.0 mm
21:22 10.6 °C 7.3 °C 1033.7 hPa NW 2.3 km/h 2.3 km/h 80 % 0.0 mm
21:27 10.6 °C 7.3 °C 1033.7 hPa NW 1.9 km/h   80 % 0.0 mm
21:32 10.5 °C 7.4 °C 1033.7 hPa Calm     81 % 0.0 mm
21:37 10.4 °C 7.3 °C 1033.7 hPa Calm     81 % 0.0 mm
21:42 10.4 °C 7.3 °C 1033.7 hPa Calm     81 % 0.0 mm
21:47 10.3 °C 7.2 °C 1033.7 hPa Calm     81 % 0.0 mm
21:52 10.3 °C 7.2 °C 1033.7 hPa Calm     81 % 0.0 mm
21:53 10.3 °C 7.2 °C 1033.7 hPa Calm     81 % 0.0 mm
21:54 10.3 °C 7.2 °C 1033.7 hPa Calm     81 % 0.0 mm
21:55 10.3 °C 7.2 °C 1033.7 hPa Calm     81 % 0.0 mm
21:56 10.3 °C 7.2 °C 1033.7 hPa Calm     81 % 0.0 mm
22:01 10.3 °C 7.3 °C 1033.7 hPa Calm     82 % 0.0 mm
22:06 10.3 °C 7.3 °C 1033.7 hPa Calm     82 % 0.0 mm
22:11 10.3 °C 7.3 °C 1033.7 hPa Calm     82 % 0.0 mm
22:16 10.2 °C 7.3 °C 1033.7 hPa Calm     82 % 0.0 mm
22:21 10.2 °C 7.3 °C 1033.7 hPa Calm     82 % 0.0 mm
22:26 10.3 °C 7.6 °C 1033.7 hPa Calm     83 % 0.0 mm
22:31 10.3 °C 7.6 °C 1033.7 hPa Calm     83 % 0.0 mm
22:36 10.3 °C 7.6 °C 1033.7 hPa Calm     83 % 0.0 mm
22:41 10.3 °C 7.6 °C 1033.7 hPa Calm     83 % 0.0 mm
22:46 10.3 °C 7.3 °C 1033.7 hPa Calm     82 % 0.0 mm
22:51 10.3 °C 7.6 °C 1033.7 hPa Calm     83 % 0.0 mm
22:56 10.3 °C 7.6 °C 1033.7 hPa Calm     83 % 0.0 mm
23:01 10.3 °C 7.6 °C 1033.7 hPa Calm     83 % 0.0 mm
23:06 10.2 °C 7.4 °C 1032.7 hPa Calm     83 % 0.0 mm
23:11 9.9 °C 6.9 °C 1032.7 hPa WSW 3.7 km/h 3.7 km/h 82 % 0.0 mm
23:16 9.9 °C 6.9 °C 1032.7 hPa WSW 3.7 km/h 3.7 km/h 82 % 0.0 mm
23:21 10.0 °C 7.1 °C 1033.7 hPa SW 1.9 km/h   82 % 0.0 mm
Meteo Sesrovires
Elogis d' Weather Underground - 3.25 mb

Guio original per  Jim McMurry - jmcmurry@mwt.net Adaptat per a la plantilla per  Wim van der Kuil - Leuven-Template.eu

Trobareu la nostra informacio del temps tambe a:

Weather Underground

AWEKAS